Time;durP1;ratioP1;P1;durP2;ratioP2;P2;SDS_P1;SDS_P2;PMS_P1;PMS_P2;Temp;Humidity;BMP_temperature;BMP_pressure;BME280_temperature;BME280_humidity;BME280_pressure;Samples;Min_cycle;Max_cycle;Signal;HPM_P1;HPM_P2
2023/04/04 00:02:06;;;;;;;;;3.00;3.00;;;;;0.51;61.07;101208.28;5119912;28;8839;-58
2023/04/04 00:04:34;;;;;;;;;0.20;0.00;;;;;0.48;61.49;101197.00;5120079;28;8832;-58
2023/04/04 00:07:02;;;;;;;;;3.00;3.00;;;;;0.47;61.31;101206.59;5119819;28;8815;-59
2023/04/04 00:09:30;;;;;;;;;1.00;1.00;;;;;0.47;61.55;101211.84;5119521;28;8808;-58
2023/04/04 00:11:57;;;;;;;;;3.00;3.00;;;;;0.44;61.80;101201.41;5119757;28;8819;-59
2023/04/04 00:14:25;;;;;;;;;4.00;4.00;;;;;0.43;61.78;101210.19;5119646;28;8961;-58
2023/04/04 00:16:53;;;;;;;;;1.00;1.00;;;;;0.42;61.41;101202.34;5120184;28;8846;-58
2023/04/04 00:19:21;;;;;;;;;1.00;1.00;;;;;0.41;61.68;101201.50;5119358;28;8862;-58
2023/04/04 00:21:49;;;;;;;;;3.00;3.00;;;;;0.41;61.70;101200.63;5119758;28;8820;-58
2023/04/04 00:24:16;;;;;;;;;1.00;1.00;;;;;0.39;61.73;101207.66;5119607;28;8832;-57
2023/04/04 00:26:44;;;;;;;;;3.20;3.00;;;;;0.38;61.29;101206.75;5119499;28;9529;-58
2023/04/04 00:29:12;;;;;;;;;4.00;3.00;;;;;0.37;61.85;101205.03;5119354;28;8836;-57
2023/04/04 00:31:40;;;;;;;;;3.00;2.60;;;;;0.36;61.54;101208.56;5118942;28;8824;-58
2023/04/04 00:34:07;;;;;;;;;3.00;3.00;;;;;0.36;61.70;101199.81;5119386;28;8842;-60
2023/04/04 00:36:35;;;;;;;;;1.00;1.00;;;;;0.37;61.54;101209.41;5119505;28;8839;-59
2023/04/04 00:39:03;;;;;;;;;0.00;0.00;;;;;0.36;62.09;101202.44;5118794;28;8834;-58
2023/04/04 00:41:30;;;;;;;;;3.00;3.00;;;;;0.34;61.98;101199.00;5119594;28;8848;-58
2023/04/04 00:43:58;;;;;;;;;2.20;2.20;;;;;0.32;61.91;101201.63;5119688;28;8836;-58
2023/04/04 00:46:26;;;;;;;;;1.00;1.00;;;;;0.31;61.72;101205.16;5119379;28;9548;-58
2023/04/04 00:48:53;;;;;;;;;1.00;1.00;;;;;0.29;61.97;101199.09;5118620;28;8848;-57
2023/04/04 00:51:22;;;;;;;;;1.00;1.00;;;;;0.27;62.47;101202.63;5118916;28;8812;-58
2023/04/04 00:53:50;;;;;;;;;1.00;1.00;;;;;0.24;62.50;101208.75;5119059;28;8857;-57
2023/04/04 00:56:17;;;;;;;;;3.40;3.00;;;;;0.22;62.42;101207.94;5119210;28;8832;-57
2023/04/04 00:58:45;;;;;;;;;3.80;3.80;;;;;0.20;61.93;101207.09;5118519;28;8954;-58
2023/04/04 01:01:13;;;;;;;;;1.80;1.80;;;;;0.18;62.65;101203.63;5119007;28;8978;-58
2023/04/04 01:03:41;;;;;;;;;1.80;1.40;;;;;0.16;62.32;101204.56;5118915;28;8950;-58
2023/04/04 01:06:09;;;;;;;;;3.20;2.60;;;;;0.14;62.51;101198.47;5117900;28;8920;-58
2023/04/04 01:08:37;;;;;;;;;2.60;2.60;;;;;0.12;62.21;101197.66;5118230;28;8812;-56
2023/04/04 01:11:05;;;;;;;;;1.40;1.40;;;;;0.09;62.29;101201.19;5118582;28;8866;-58
2023/04/04 01:13:33;;;;;;;;;1.00;1.00;;;;;0.08;62.49;101202.06;5118308;28;8800;-60
2023/04/04 01:16:00;;;;;;;;;1.00;1.00;;;;;0.06;62.49;101197.75;5117839;28;8839;-58
2023/04/04 01:18:28;;;;;;;;;2.20;2.20;;;;;0.03;62.63;101200.44;5118622;28;8829;-59
2023/04/04 01:20:56;;;;;;;;;1.80;1.80;;;;;-0.02;62.88;101197.91;5118641;28;8847;-59
2023/04/04 01:23:23;;;;;;;;;0.60;0.60;;;;;-0.06;62.60;101198.81;5118346;28;8847;-59
2023/04/04 01:25:52;;;;;;;;;3.00;3.00;;;;;-0.09;62.93;101191.94;5117518;28;8942;-58
2023/04/04 01:28:20;;;;;;;;;2.20;2.20;;;;;-0.13;62.90;101193.72;5117443;28;8850;-60
2023/04/04 01:30:48;;;;;;;;;3.00;2.20;;;;;-0.14;62.83;101202.47;5118320;28;8840;-58
2023/04/04 01:33:15;;;;;;;;;3.00;3.00;;;;;-0.15;63.02;101195.53;5118222;28;8827;-58
2023/04/04 01:35:43;;;;;;;;;5.40;3.20;;;;;-0.16;63.17;101200.75;5117952;28;8837;-60
2023/04/04 01:38:11;;;;;;;;;1.80;1.80;;;;;-0.20;63.15;101193.84;5117803;28;8822;-58
2023/04/04 01:40:40;;;;;;;;;1.00;1.00;;;;;-0.22;63.39;101195.63;5118032;28;8842;-59
2023/04/04 01:43:08;;;;;;;;;2.20;1.00;;;;;-0.25;63.12;101185.22;5118378;28;8978;-59
2023/04/04 01:45:36;;;;;;;;;2.60;2.60;;;;;-0.29;63.08;101183.53;5117923;28;8901;-59
2023/04/04 01:48:04;;;;;;;;;0.40;0.40;;;;;-0.33;63.39;101187.09;5117839;28;8855;-57
2023/04/04 01:50:31;;;;;;;;;0.00;0.00;;;;;-0.34;63.69;101185.34;5117808;28;8832;-57
2023/04/04 01:52:59;;;;;;;;;1.40;1.00;;;;;-0.39;63.69;101187.19;5118072;28;9502;-58
2023/04/04 01:55:27;;;;;;;;;3.40;3.00;;;;;-0.43;63.45;101180.25;5117851;28;8847;-58
2023/04/04 01:57:55;;;;;;;;;1.00;0.00;;;;;-0.47;63.42;101182.06;5116966;28;8820;-58
2023/04/04 02:00:22;;;;;;;;;0.00;0.00;;;;;-0.48;63.73;101174.25;5117776;28;8991;-58
2023/04/04 02:02:50;;;;;;;;;1.00;1.00;;;;;-0.51;63.81;101171.66;5117812;28;8828;-59
2023/04/04 02:05:18;;;;;;;;;3.00;3.00;;;;;-0.54;63.79;101172.56;5117305;28;8840;-57
2023/04/04 02:07:46;;;;;;;;;1.00;1.00;;;;;-0.55;63.95;101170.00;5116832;28;8823;-57
2023/04/04 02:10:14;;;;;;;;;3.00;3.00;;;;;-0.57;63.83;101176.97;5117586;28;8875;-57
2023/04/04 02:12:41;;;;;;;;;1.00;1.00;;;;;-0.60;63.36;101172.69;5117305;28;8820;-58
2023/04/04 02:15:09;;;;;;;;;3.80;3.00;;;;;-0.63;64.30;101169.25;5117602;28;8835;-58
2023/04/04 02:17:38;;;;;;;;;1.40;1.40;;;;;-0.65;64.01;101173.63;5116524;28;8819;-57
2023/04/04 02:20:07;;;;;;;;;3.00;3.00;;;;;-0.67;64.13;101165.81;5117303;28;8826;-57
2023/04/04 02:22:35;;;;;;;;;1.00;1.00;;;;;-0.66;63.93;101172.78;5117255;28;8870;-58
2023/04/04 02:25:03;;;;;;;;;3.00;2.60;;;;;-0.69;64.09;101167.56;5117296;28;8820;-58
2023/04/04 02:27:30;;;;;;;;;2.60;2.60;;;;;-0.70;64.31;101165.84;5116857;28;8824;-57
2023/04/04 02:29:58;;;;;;;;;4.00;3.20;;;;;-0.70;64.58;101162.38;5117020;28;8848;-60
2023/04/04 02:32:26;;;;;;;;;0.40;0.40;;;;;-0.72;64.43;101161.53;5117377;28;8832;-59
2023/04/04 02:34:54;;;;;;;;;1.00;0.00;;;;;-0.71;64.08;101163.28;5117431;28;8820;-57
2023/04/04 02:37:21;;;;;;;;;2.60;2.60;;;;;-0.72;64.13;101165.00;5116599;28;8820;-57
2023/04/04 02:39:49;;;;;;;;;1.00;1.00;;;;;-0.69;64.41;101158.88;5116990;28;8828;-59
2023/04/04 02:42:16;;;;;;;;;3.20;3.00;;;;;-0.67;64.37;101163.22;5116417;28;8828;-57
2023/04/04 02:44:44;;;;;;;;;3.00;1.40;;;;;-0.66;63.75;101162.31;5117389;28;8828;-60
2023/04/04 02:47:12;;;;;;;;;3.00;3.00;;;;;-0.65;64.17;101169.28;5116294;28;8807;-58
2023/04/04 02:49:40;;;;;;;;;2.20;1.00;;;;;-0.68;63.48;101165.84;5116933;28;9521;-57
2023/04/04 02:52:07;;;;;;;;;1.80;1.80;;;;;-0.69;63.95;101161.50;5116638;28;8824;-58
2023/04/04 02:54:35;;;;;;;;;3.00;3.00;;;;;-0.68;64.33;101160.59;5116929;28;8827;-59
2023/04/04 02:57:03;;;;;;;;;1.00;1.00;;;;;-0.71;64.32;101164.13;5116344;28;8808;-58
2023/04/04 02:59:31;;;;;;;;;1.00;1.00;;;;;-0.73;64.47;101162.41;5116551;28;8819;-57
2023/04/04 03:01:59;;;;;;;;;1.60;0.80;;;;;-0.76;64.64;101157.25;5116703;28;8842;-57
2023/04/04 03:04:27;;;;;;;;;1.00;0.80;;;;;-0.77;64.31;101163.38;5116598;28;9512;-59
2023/04/04 03:06:56;;;;;;;;;1.00;1.00;;;;;-0.79;63.89;101162.50;5116205;28;8824;-59
2023/04/04 03:09:24;;;;;;;;;2.20;1.00;;;;;-0.81;64.28;101159.94;5116359;28;8829;-57
2023/04/04 03:11:52;;;;;;;;;3.20;2.60;;;;;-0.83;64.68;101158.22;5116581;28;8840;-57
2023/04/04 03:14:20;;;;;;;;;3.60;3.00;;;;;-0.86;64.35;101155.66;5116522;28;8828;-58
2023/04/04 03:16:48;;;;;;;;;2.20;2.20;;;;;-0.88;64.27;101165.25;5115642;28;8804;-58
2023/04/04 03:19:16;;;;;;;;;2.20;2.20;;;;;-0.94;64.71;101163.59;5115943;28;8800;-58
2023/04/04 03:21:43;;;;;;;;;0.20;0.20;;;;;-0.98;64.32;101158.44;5116155;28;8843;-58
2023/04/04 03:24:12;;;;;;;;;1.00;1.00;;;;;-1.02;65.12;101161.97;5115995;28;8844;-60
2023/04/04 03:26:39;;;;;;;;;3.00;1.40;;;;;-1.07;64.72;101163.78;5115776;28;8804;-57
2023/04/04 03:29:07;;;;;;;;;1.00;1.00;;;;;-1.11;64.98;101159.47;5116927;28;8828;-57
2023/04/04 03:31:35;;;;;;;;;1.40;1.00;;;;;-1.16;64.81;101156.91;5122620;28;8815;-57
2023/04/04 03:34:03;;;;;;;;;1.00;1.00;;;;;-1.22;65.42;101153.53;5123245;28;8962;-58
2023/04/04 03:36:30;;;;;;;;;1.00;1.00;;;;;-1.26;65.03;101155.31;5122696;28;8951;-58
2023/04/04 03:38:58;;;;;;;;;1.00;1.00;;;;;-1.29;65.28;101154.50;5122287;28;8820;-58
2023/04/04 03:41:26;;;;;;;;;3.00;3.00;;;;;-1.33;65.42;101139.72;5121403;28;8844;-57
2023/04/04 03:43:54;;;;;;;;;0.80;0.80;;;;;-1.37;65.05;101138.91;5119873;28;8917;-58
2023/04/04 03:46:23;;;;;;;;;1.60;0.80;;;;;-1.40;65.27;101135.47;5120092;28;8839;-58
2023/04/04 03:48:50;;;;;;;;;3.00;1.40;;;;;-1.43;65.74;101140.75;5120229;28;9516;-59
2023/04/04 03:51:18;;;;;;;;;1.00;1.00;;;;;-1.45;65.86;101140.75;5120104;28;8871;-59
2023/04/04 03:53:46;;;;;;;;;0.00;0.00;;;;;-1.45;65.94;101130.31;5120226;28;8870;-59
2023/04/04 03:56:14;;;;;;;;;1.20;1.20;;;;;-1.44;65.28;101131.19;5120499;28;8908;-59
2023/04/04 03:58:42;;;;;;;;;0.00;0.00;;;;;-1.45;65.78;101132.91;5121935;28;8854;-57
2023/04/04 04:01:10;;;;;;;;;1.40;1.40;;;;;-1.44;66.04;101123.34;5121805;28;8847;-58
2023/04/04 04:03:38;;;;;;;;;1.00;1.00;;;;;-1.43;65.92;101122.47;5122256;28;8816;-58
2023/04/04 04:06:05;;;;;;;;;3.20;3.00;;;;;-1.41;65.73;101125.91;5122019;28;8808;-60
2023/04/04 04:08:35;;;;;;;;;1.80;1.80;;;;;-1.41;65.79;101124.16;5122618;28;8847;-60
2023/04/04 04:11:03;;;;;;;;;2.60;1.00;;;;;-1.40;65.62;101122.41;5122412;28;9880;-60
2023/04/04 04:13:30;;;;;;;;;0.00;0.00;;;;;-1.41;65.67;101125.91;5122723;28;8816;-58
2023/04/04 04:15:58;;;;;;;;;1.00;1.00;;;;;-1.43;65.30;101132.91;5123149;28;8832;-60
2023/04/04 04:18:26;;;;;;;;;0.80;0.80;;;;;-1.45;66.03;101119.84;5121754;28;8946;-57
2023/04/04 04:20:54;;;;;;;;;3.00;0.60;;;;;-1.45;65.92;101124.22;5122396;28;8870;-60
2023/04/04 04:23:22;;;;;;;;;0.80;0.00;;;;;-1.47;65.75;101120.75;5122805;28;8804;-59
2023/04/04 04:25:50;;;;;;;;;1.00;1.00;;;;;-1.49;66.09;101120.78;5122978;28;8828;-60
2023/04/04 04:28:17;;;;;;;;;0.00;0.00;;;;;-1.49;65.37;101122.53;5122212;28;8843;-58
2023/04/04 04:30:45;;;;;;;;;1.00;1.00;;;;;-1.50;65.60;101123.41;5122031;28;8832;-60
2023/04/04 04:33:13;;;;;;;;;1.40;1.00;;;;;-1.50;65.84;101118.19;5122745;28;9513;-59
2023/04/04 04:35:41;;;;;;;;;0.80;0.80;;;;;-1.52;65.95;101118.19;5122585;28;8820;-59
2023/04/04 04:38:09;;;;;;;;;0.20;0.20;;;;;-1.53;66.11;101126.06;5121455;28;8816;-57
2023/04/04 04:40:37;;;;;;;;;1.00;1.00;;;;;-1.53;65.88;101126.91;5120561;28;8848;-59
2023/04/04 04:43:05;;;;;;;;;0.40;0.40;;;;;-1.55;66.12;101123.47;5117705;28;8851;-57
2023/04/04 04:45:33;;;;;;;;;1.00;1.00;;;;;-1.56;65.81;101120.88;5117479;28;8950;-58
2023/04/04 04:48:01;;;;;;;;;1.00;1.00;;;;;-1.61;66.20;101123.53;5117443;28;8800;-57
2023/04/04 04:50:29;;;;;;;;;0.20;0.00;;;;;-1.64;66.34;101123.59;5118053;28;8847;-57
2023/04/04 04:52:57;;;;;;;;;1.00;1.00;;;;;-1.63;66.21;101124.44;5118087;28;8840;-57
2023/04/04 04:55:25;;;;;;;;;1.00;1.00;;;;;-1.65;65.75;101124.47;5118621;28;8855;-61
2023/04/04 04:57:53;;;;;;;;;0.00;0.00;;;;;-1.65;66.05;101126.22;5118422;28;8824;-61
2023/04/04 05:00:21;;;;;;;;;1.00;1.00;;;;;-1.66;66.07;101127.09;5118754;28;8854;-62
2023/04/04 05:02:48;;;;;;;;;3.80;3.60;;;;;-1.70;66.39;101118.44;5118466;28;9041;-62
2023/04/04 05:05:16;;;;;;;;;3.00;2.60;;;;;-1.72;66.24;101143.69;5116848;28;8863;-63
2023/04/04 05:07:44;;;;;;;;;2.80;1.00;;;;;-1.74;66.43;101139.38;5118006;28;8870;-61
2023/04/04 05:10:12;;;;;;;;;1.00;1.00;;;;;-1.75;66.55;101135.03;5117876;28;8842;-62
2023/04/04 05:12:40;;;;;;;;;1.00;1.00;;;;;-1.77;66.32;101136.78;5118458;28;8828;-63
2023/04/04 05:15:07;;;;;;;;;1.00;1.00;;;;;-1.77;66.05;101139.38;5118085;28;8875;-61
2023/04/04 05:17:35;;;;;;;;;1.00;1.00;;;;;-1.76;66.52;101144.59;5117524;28;8836;-60
2023/04/04 05:20:03;;;;;;;;;1.00;1.00;;;;;-1.73;65.79;101144.59;5117487;28;8824;-62
2023/04/04 05:22:31;;;;;;;;;1.00;1.00;;;;;-1.69;66.36;101145.38;5117584;28;9608;-62
2023/04/04 05:24:59;;;;;;;;;1.00;1.00;;;;;-1.62;66.51;101149.66;5116628;28;9739;-60
2023/04/04 05:27:26;;;;;;;;;0.40;0.40;;;;;-1.54;66.18;101156.53;5116357;28;8816;-60
2023/04/04 05:29:54;;;;;;;;;0.60;0.60;;;;;-1.49;65.54;101153.84;5116146;28;8815;-61
2023/04/04 05:32:22;;;;;;;;;0.20;0.20;;;;;-1.41;65.75;101141.56;5116375;28;8828;-62
2023/04/04 05:34:51;;;;;;;;;1.00;1.00;;;;;-1.34;65.44;101138.88;5117100;28;8828;-62
2023/04/04 05:37:19;;;;;;;;;0.00;0.00;;;;;-1.24;65.66;101145.72;5116759;28;8866;-60
2023/04/04 05:39:47;;;;;;;;;3.00;3.00;;;;;-1.10;65.67;101142.91;5116952;28;8856;-59
2023/04/04 05:42:15;;;;;;;;;1.00;1.00;;;;;-0.96;65.11;101148.81;5117292;28;8843;-60
2023/04/04 05:44:43;;;;;;;;;1.00;1.00;;;;;-0.88;65.11;101146.94;5116164;28;8843;-61
2023/04/04 05:47:11;;;;;;;;;1.00;1.00;;;;;-0.81;64.84;101145.97;5115845;28;8824;-62
2023/04/04 05:49:39;;;;;;;;;3.00;3.00;;;;;-0.75;65.49;101136.31;5116376;28;8867;-61
2023/04/04 05:52:07;;;;;;;;;0.00;0.00;;;;;-0.67;64.83;101144.03;5116347;28;9486;-60
2023/04/04 05:54:34;;;;;;;;;3.40;3.40;;;;;-0.62;64.98;101148.28;5116414;28;8830;-62
2023/04/04 05:57:03;;;;;;;;;2.20;2.20;;;;;-0.52;64.93;101152.53;5115624;28;8827;-60
2023/04/04 05:59:30;;;;;;;;;1.80;1.80;;;;;-0.38;63.91;101157.53;5115899;28;8856;-62
2023/04/04 06:01:58;;;;;;;;;1.00;1.00;;;;;-0.30;64.48;101168.72;5116513;28;8828;-62
2023/04/04 06:04:26;;;;;;;;;1.40;1.40;;;;;-0.24;64.39;101171.25;5115700;28;8846;-60
2023/04/04 06:06:54;;;;;;;;;0.80;0.80;;;;;-0.22;64.36;101170.34;5115507;28;8836;-62
2023/04/04 06:09:22;;;;;;;;;2.60;2.60;;;;;-0.19;64.56;101166.78;5116115;28;8848;-59
2023/04/04 06:11:49;;;;;;;;;3.20;3.20;;;;;-0.15;64.13;101164.13;5116001;28;8847;-59
2023/04/04 06:14:17;;;;;;;;;1.40;1.40;;;;;-0.03;63.96;101161.25;5116426;28;8977;-60
2023/04/04 06:16:45;;;;;;;;;1.00;1.00;;;;;0.14;64.50;101170.56;5115852;28;8804;-58
2023/04/04 06:19:13;;;;;;;;;1.80;1.80;;;;;0.28;63.52;101163.31;5116016;28;8838;-58
2023/04/04 06:21:40;;;;;;;;;4.00;3.00;;;;;0.43;63.69;101168.25;5114762;28;8842;-58
2023/04/04 06:24:08;;;;;;;;;4.00;4.00;;;;;0.56;63.62;101175.00;5115642;28;8898;-58
2023/04/04 06:26:37;;;;;;;;;3.40;3.40;;;;;0.70;63.63;101172.94;5115693;28;8874;-58
2023/04/04 06:29:05;;;;;;;;;6.40;3.60;;;;;0.81;63.08;101176.22;5115804;28;8816;-58
2023/04/04 06:31:33;;;;;;;;;3.00;3.00;;;;;0.91;62.76;101172.50;5115113;28;8827;-57
2023/04/04 06:34:01;;;;;;;;;4.40;4.40;;;;;1.01;62.94;101178.44;5115133;28;8962;-58
2023/04/04 06:36:29;;;;;;;;;4.80;4.40;;;;;1.13;63.13;101173.78;5114892;28;8852;-57
2023/04/04 06:38:57;;;;;;;;;3.80;3.80;;;;;1.28;63.07;101173.44;5115403;28;8824;-58
2023/04/04 06:41:25;;;;;;;;;5.80;4.80;;;;;1.39;62.31;101176.69;5115352;28;8848;-57
2023/04/04 06:43:53;;;;;;;;;3.00;3.00;;;;;1.54;62.39;101175.47;5115139;28;8986;-60
2023/04/04 06:46:20;;;;;;;;;4.20;4.20;;;;;1.68;62.13;101183.88;5115129;28;8836;-60
2023/04/04 06:48:48;;;;;;;;;6.00;4.00;;;;;1.83;62.59;101187.00;5114819;28;8832;-58
2023/04/04 06:51:16;;;;;;;;;4.40;3.80;;;;;2.00;62.22;101189.22;5114898;28;8842;-59
2023/04/04 06:53:44;;;;;;;;;4.00;4.00;;;;;2.13;62.32;101188.00;5114837;28;8819;-60
2023/04/04 06:56:12;;;;;;;;;5.60;5.20;;;;;2.19;61.98;101188.69;5115344;28;8820;-59
2023/04/04 06:58:40;;;;;;;;;3.20;3.20;;;;;2.25;61.71;101188.53;5114676;28;8879;-59
2023/04/04 07:01:12;;;;;;;;;6.00;4.00;;;;;2.32;61.83;101190.13;5114067;28;8858;-57
2023/04/04 07:03:40;;;;;;;;;4.00;3.60;;;;;2.39;62.14;101196.94;5114777;28;8847;-59
2023/04/04 07:06:08;;;;;;;;;5.20;5.20;;;;;2.44;61.86;101189.75;5114682;28;8848;-59
2023/04/04 07:08:35;;;;;;;;;3.20;3.20;;;;;2.55;61.58;101186.84;5114541;28;8841;-59
2023/04/04 07:11:03;;;;;;;;;6.60;6.60;;;;;2.72;61.84;101185.50;5113538;28;8874;-57
2023/04/04 07:13:31;;;;;;;;;5.60;5.60;;;;;2.88;61.58;101183.31;5113624;28;8831;-57
2023/04/04 07:16:00;;;;;;;;;3.60;3.60;;;;;3.03;60.76;101185.50;5114160;28;8847;-58
2023/04/04 07:18:28;;;;;;;;;4.80;4.80;;;;;3.14;61.37;101176.38;5113804;28;8974;-58
2023/04/04 07:20:56;;;;;;;;;3.40;3.40;;;;;3.22;61.11;101177.00;5113953;28;8844;-61
2023/04/04 07:23:25;;;;;;;;;6.60;6.20;;;;;3.32;60.98;101173.16;5113046;28;8870;-60
2023/04/04 07:25:53;;;;;;;;;3.40;3.40;;;;;3.46;60.53;101165.72;5113707;28;8886;-57
2023/04/04 07:28:21;;;;;;;;;3.60;3.60;;;;;3.57;60.95;101166.22;5113689;28;8924;-58
2023/04/04 07:30:49;;;;;;;;;1.00;1.00;;;;;3.65;60.84;101163.38;5113229;28;8849;-59
2023/04/04 07:33:17;;;;;;;;;5.60;4.40;;;;;3.74;60.22;101163.94;5112554;28;8839;-57
2023/04/04 07:35:45;;;;;;;;;6.80;6.40;;;;;3.87;60.42;101171.38;5112049;28;9021;-57
2023/04/04 07:38:13;;;;;;;;;4.00;4.00;;;;;3.98;60.17;101165.75;5113326;28;9093;-57
2023/04/04 07:40:41;;;;;;;;;1.00;0.80;;;;;4.08;60.00;101175.94;5113418;28;9486;-59
2023/04/04 07:43:09;;;;;;;;;5.20;4.80;;;;;4.22;59.71;101176.34;5112607;28;8886;-60
2023/04/04 07:45:37;;;;;;;;;4.00;4.00;;;;;4.39;59.58;101170.47;5111757;28;8812;-59
2023/04/04 07:48:05;;;;;;;;;4.40;4.40;;;;;4.54;60.08;101172.56;5112398;28;8835;-59
2023/04/04 07:50:33;;;;;;;;;3.40;3.40;;;;;4.69;59.18;101170.25;5112765;28;8864;-60
2023/04/04 07:53:01;;;;;;;;;3.40;3.40;;;;;4.84;59.42;101171.47;5112568;28;8840;-59
2023/04/04 07:55:29;;;;;;;;;6.40;6.00;;;;;4.97;59.15;101168.34;5112814;28;8929;-60
2023/04/04 07:57:57;;;;;;;;;7.20;6.40;;;;;5.11;59.24;101159.88;5114296;28;8856;-59
2023/04/04 08:00:25;;;;;;;;;6.00;6.00;;;;;5.25;58.66;101154.94;5114646;28;9513;-58
2023/04/04 08:02:53;;;;;;;;;5.20;4.40;;;;;5.40;58.91;101162.28;5114325;28;8925;-59
2023/04/04 08:05:22;;;;;;;;;4.40;3.60;;;;;5.56;58.83;101152.81;5113972;28;8824;-60
2023/04/04 08:07:50;;;;;;;;;3.00;3.00;;;;;5.68;58.71;101154.97;5114015;28;8872;-60
2023/04/04 08:10:20;;;;;;;;;3.80;3.20;;;;;5.84;58.18;101150.81;5114119;28;9505;-60
2023/04/04 08:12:48;;;;;;;;;3.20;3.20;;;;;5.99;57.79;101153.69;5114168;28;8824;-58
2023/04/04 08:15:16;;;;;;;;;4.00;4.00;;;;;6.14;57.56;101149.53;5113741;28;8905;-59
2023/04/04 08:17:45;;;;;;;;;1.00;1.00;;;;;6.28;57.21;101139.22;5117745;28;8851;-60
2023/04/04 08:20:13;;;;;;;;;3.80;3.60;;;;;6.39;57.64;101142.28;5117493;28;8856;-58
2023/04/04 08:22:41;;;;;;;;;4.40;4.40;;;;;6.53;56.84;101140.72;5116404;28;8963;-60
2023/04/04 08:25:09;;;;;;;;;3.40;3.20;;;;;6.67;56.82;101140.13;5116839;28;8831;-58
2023/04/04 08:27:37;;;;;;;;;0.40;0.00;;;;;6.80;56.56;101139.50;5116220;28;8840;-60
2023/04/04 08:30:06;;;;;;;;;3.00;3.00;;;;;6.86;56.11;101136.59;5117118;28;8823;-58
2023/04/04 08:32:33;;;;;;;;;0.00;0.00;;;;;6.93;56.05;101134.50;5116531;28;8844;-60
2023/04/04 08:35:01;;;;;;;;;1.00;1.00;;;;;7.05;55.75;101128.66;5116527;28;8828;-59
2023/04/04 08:37:29;;;;;;;;;0.00;0.00;;;;;7.17;55.54;101122.78;5116311;28;8873;-58
2023/04/04 08:39:58;;;;;;;;;1.00;1.00;;;;;7.27;55.56;101129.38;5115116;28;8870;-58
2023/04/04 08:42:26;;;;;;;;;0.40;0.40;;;;;7.34;55.03;101121.06;5114981;28;8854;-58
2023/04/04 08:44:54;;;;;;;;;0.60;0.60;;;;;7.43;55.13;101122.41;5115710;28;8840;-58
2023/04/04 08:47:21;;;;;;;;;0.00;0.00;;;;;7.53;54.88;101115.75;5114514;28;8855;-60
2023/04/04 08:49:50;;;;;;;;;1.00;1.00;;;;;7.66;54.31;101124.81;5114886;28;8831;-59
2023/04/04 08:52:20;;;;;;;;;1.40;1.40;;;;;7.72;54.33;101123.59;5114073;28;8832;-58
2023/04/04 08:54:49;;;;;;;;;1.00;1.00;;;;;7.79;53.85;101134.75;5115231;28;9506;-58
2023/04/04 08:57:17;;;;;;;;;1.00;1.00;;;;;7.89;53.79;101131.56;5115330;28;8836;-57
2023/04/04 08:59:45;;;;;;;;;3.00;1.00;;;;;8.03;53.65;101134.38;5114786;28;8847;-59
2023/04/04 09:02:13;;;;;;;;;1.00;1.00;;;;;8.17;53.54;101129.25;5115789;28;8823;-59
2023/04/04 09:04:41;;;;;;;;;2.00;2.00;;;;;8.29;52.97;101136.59;5115885;28;8836;-58
2023/04/04 09:07:21;;;;;;;;;3.00;3.00;;;;;8.38;52.94;101130.81;5116257;28;8986;-60
2023/04/04 09:09:49;;;;;;;;;3.00;3.00;;;;;8.49;52.46;101136.44;5115505;28;8823;-58
2023/04/04 09:12:17;;;;;;;;;0.00;0.00;;;;;8.63;52.13;101141.00;5114887;28;8889;-59
2023/04/04 09:14:45;;;;;;;;;1.50;1.50;;;;;8.79;51.80;101121.53;5115384;28;8855;-60
2023/04/04 09:17:13;;;;;;;;;3.00;3.00;;;;;8.94;51.85;101128.69;5115135;28;8839;-58
2023/04/04 09:19:41;;;;;;;;;3.00;1.00;;;;;9.05;51.68;101123.63;5115303;28;8947;-59
2023/04/04 09:22:09;;;;;;;;;1.00;1.00;;;;;9.18;51.75;101118.53;5116084;28;8920;-59
2023/04/04 09:24:37;;;;;;;;;3.00;3.00;;;;;9.33;51.37;101121.19;5115739;28;8862;-60
2023/04/04 09:27:05;;;;;;;;;3.50;3.00;;;;;9.48;51.29;101119.50;5115037;28;8848;-58
2023/04/04 09:29:33;;;;;;;;;3.50;3.00;;;;;9.69;51.11;101120.91;5115615;28;9626;-59
2023/04/04 09:32:01;;;;;;;;;1.50;1.50;;;;;9.87;50.48;101120.69;5115171;28;8859;-60
2023/04/04 09:34:30;;;;;;;;;1.50;1.50;;;;;9.93;50.11;101119.50;5115436;28;8856;-58
2023/04/04 09:36:59;;;;;;;;;2.50;2.50;;;;;9.93;50.67;101120.34;5115591;28;8966;-59
2023/04/04 09:39:27;;;;;;;;;1.00;1.00;;;;;9.97;50.12;101110.38;5115106;28;8815;-58
2023/04/04 09:41:55;;;;;;;;;0.25;0.25;;;;;9.93;50.37;101115.03;5115713;28;8848;-59
2023/04/04 09:44:23;;;;;;;;;1.00;0.75;;;;;9.87;50.08;101118.03;5115890;28;8950;-58
2023/04/04 09:46:52;;;;;;;;;0.75;0.75;;;;;9.78;50.18;101115.09;5116356;28;8951;-58
2023/04/04 09:49:21;;;;;;;;;3.00;1.00;;;;;9.74;50.10;101114.41;5115287;28;8812;-59
2023/04/04 09:51:49;;;;;;;;;2.00;2.00;;;;;9.76;49.80;101112.50;5116136;28;8843;-58
2023/04/04 09:54:17;;;;;;;;;3.00;2.50;;;;;9.84;50.09;101115.56;5115995;28;8827;-58
2023/04/04 09:56:45;;;;;;;;;3.00;2.50;;;;;10.09;49.32;101107.06;5115899;28;8860;-58
2023/04/04 09:59:13;;;;;;;;;1.00;1.00;;;;;10.59;48.85;101104.84;5115554;28;8944;-58
2023/04/04 10:01:41;;;;;;;;;1.00;1.00;;;;;11.26;47.05;101091.69;5114458;28;8847;-58
2023/04/04 10:04:09;;;;;;;;;2.00;2.00;;;;;12.08;45.44;101094.22;5114543;28;8823;-57
2023/04/04 10:06:37;;;;;;;;;2.50;2.00;;;;;12.89;44.74;101081.31;5114244;28;8839;-58
2023/04/04 10:09:06;;;;;;;;;2.00;2.00;;;;;13.63;43.31;101081.25;5113394;28;8809;-60
2023/04/04 10:11:34;;;;;;;;;3.50;3.00;;;;;14.09;42.90;101085.72;5113367;28;8848;-60
2023/04/04 10:14:02;;;;;;;;;3.75;2.50;;;;;14.60;42.67;101076.41;5113567;28;8862;-58
2023/04/04 10:16:31;;;;;;;;;3.00;3.00;;;;;15.16;41.39;101071.91;5113474;28;8855;-58
2023/04/04 10:19:00;;;;;;;;;2.00;2.00;;;;;15.57;40.54;101075.66;5112323;28;8823;-58
2023/04/04 10:21:28;;;;;;;;;1.00;1.00;;;;;15.96;41.01;101063.41;5113625;28;9824;-59
2023/04/04 10:23:56;;;;;;;;;1.00;1.00;;;;;16.36;39.91;101055.41;5112707;28;8857;-58
2023/04/04 10:26:25;;;;;;;;;2.00;2.00;;;;;16.79;39.74;101057.94;5112234;28;8962;-58
2023/04/04 10:28:53;;;;;;;;;3.00;3.00;;;;;17.29;39.76;101047.09;5112532;28;8885;-59
2023/04/04 10:31:22;;;;;;;;;3.00;3.00;;;;;17.71;38.52;101047.75;5112979;28;8820;-58
2023/04/04 10:33:50;;;;;;;;;3.40;3.00;;;;;18.09;38.64;101042.38;5113561;28;8840;-61
2023/04/04 10:36:18;;;;;;;;;3.00;3.00;;;;;18.36;37.97;101046.06;5114043;28;8823;-58
2023/04/04 10:38:46;;;;;;;;;3.00;2.60;;;;;18.70;37.78;101043.72;5114230;28;8848;-58
2023/04/04 10:41:14;;;;;;;;;3.00;2.60;;;;;18.96;37.35;101040.22;5115128;28;9533;-59
2023/04/04 10:43:43;;;;;;;;;3.00;3.00;;;;;19.36;37.09;101040.75;5114825;28;8836;-59
2023/04/04 10:46:11;;;;;;;;;3.60;3.60;;;;;19.60;36.89;101032.06;5114146;28;8867;-59
2023/04/04 10:48:39;;;;;;;;;1.00;1.00;;;;;19.83;36.82;101031.47;5113756;28;8862;-58
2023/04/04 10:51:07;;;;;;;;;4.20;2.80;;;;;19.93;36.58;101029.53;5114303;28;8908;-59
2023/04/04 10:53:35;;;;;;;;;2.60;2.60;;;;;20.14;36.34;101035.50;5114462;28;8940;-59
2023/04/04 10:56:03;;;;;;;;;3.00;3.00;;;;;20.18;36.44;101017.94;5114125;28;8836;-58
2023/04/04 10:58:31;;;;;;;;;1.00;1.00;;;;;20.26;36.16;101018.00;5114214;28;8848;-59
2023/04/04 11:01:00;;;;;;;;;1.00;1.00;;;;;20.51;36.61;101016.31;5114546;28;9477;-58
2023/04/04 11:03:28;;;;;;;;;3.80;3.40;;;;;20.58;36.63;101006.56;5114182;28;8946;-59
2023/04/04 11:06:00;;;;;;;;;3.40;3.00;;;;;20.66;35.90;101003.91;5113848;28;8925;-58
2023/04/04 11:08:29;;;;;;;;;3.00;3.00;;;;;20.72;35.72;101001.41;5113553;28;8889;-59
2023/04/04 11:10:57;;;;;;;;;3.00;2.20;;;;;20.55;35.42;100996.91;5112647;28;8831;-59
2023/04/04 11:13:29;;;;;;;;;3.00;3.00;;;;;20.58;35.27;101012.84;5113089;28;8988;-59
2023/04/04 11:15:58;;;;;;;;;4.00;3.00;;;;;20.55;35.07;101007.72;5112719;28;8840;-59
2023/04/04 11:18:26;;;;;;;;;5.20;2.00;;;;;20.63;35.15;101002.34;5112770;28;8928;-59
2023/04/04 11:21:00;;;;;;;;;4.00;4.00;;;;;20.74;35.04;101004.81;5112552;28;8812;-59
2023/04/04 11:23:28;;;;;;;;;2.20;2.20;;;;;21.09;34.16;100996.53;5093324;28;9816;-60
2023/04/04 11:25:56;;;;;;;;;2.20;2.20;;;;;21.25;33.27;100996.63;5093404;28;8818;-59
2023/04/04 11:28:24;;;;;;;;;4.60;2.80;;;;;21.40;33.35;100989.53;5093565;28;8893;-59
2023/04/04 11:30:52;;;;;;;;;1.00;1.00;;;;;21.64;33.47;100986.88;5104897;28;8921;-59
2023/04/04 11:33:20;;;;;;;;;1.00;1.00;;;;;21.79;33.51;100983.34;5113325;28;8985;-58
2023/04/04 11:35:48;;;;;;;;;2.00;2.00;;;;;21.94;33.02;100983.53;5113175;28;8851;-59
2023/04/04 11:38:16;;;;;;;;;4.60;4.00;;;;;21.90;33.07;100993.03;5112928;28;8920;-59
2023/04/04 11:40:44;;;;;;;;;2.40;1.40;;;;;22.07;32.60;100979.28;5112864;28;8859;-59